createdAt,value
2022-12-31T00:01:10.451Z,84.87
2022-12-31T00:03:39.901Z,84.75
2022-12-31T00:06:17.365Z,84.62
2022-12-31T00:08:46.551Z,84.72
2022-12-31T00:11:15.260Z,84.70
2022-12-31T00:13:43.953Z,84.77
2022-12-31T00:16:15.969Z,84.80
2022-12-31T00:18:49.069Z,84.70
2022-12-31T00:21:18.514Z,84.60
2022-12-31T00:23:47.089Z,84.72
2022-12-31T00:26:18.201Z,84.78
2022-12-31T00:28:47.636Z,84.56
2022-12-31T00:31:18.592Z,84.60
2022-12-31T00:33:46.709Z,84.53
2022-12-31T00:36:18.139Z,84.61
2022-12-31T00:38:49.445Z,84.77
2022-12-31T00:41:19.172Z,84.45
2022-12-31T00:43:47.630Z,84.33
2022-12-31T00:46:16.704Z,84.10
2022-12-31T00:48:45.507Z,84.19
2022-12-31T00:51:17.238Z,84.28
2022-12-31T00:53:46.085Z,84.21
2022-12-31T00:56:21.444Z,84.27
2022-12-31T00:58:50.477Z,84.33
2022-12-31T01:01:20.959Z,84.35
2022-12-31T01:03:50.867Z,84.54
2022-12-31T01:06:20.042Z,84.54
2022-12-31T01:08:49.623Z,84.52
2022-12-31T01:11:24.515Z,84.38
2022-12-31T01:13:55.031Z,84.44
2022-12-31T01:16:26.483Z,84.42
2022-12-31T01:18:54.741Z,84.40
2022-12-31T01:21:22.801Z,84.31
2022-12-31T01:23:50.869Z,84.29
2022-12-31T01:26:20.075Z,84.33
2022-12-31T01:28:48.331Z,84.43
2022-12-31T01:31:19.652Z,84.47
2022-12-31T01:33:48.046Z,84.38
2022-12-31T01:36:23.539Z,84.27
2022-12-31T01:38:55.589Z,84.26
2022-12-31T01:41:30.293Z,84.36
2022-12-31T01:44:00.095Z,84.31
2022-12-31T01:46:40.286Z,84.25
2022-12-31T01:49:36.732Z,84.62
2022-12-31T01:52:20.636Z,84.55
2022-12-31T01:54:59.582Z,84.70
2022-12-31T01:57:27.932Z,84.47
2022-12-31T01:59:56.788Z,84.60
2022-12-31T02:03:29.184Z,84.73
2022-12-31T02:06:11.051Z,84.80
2022-12-31T02:08:42.210Z,84.84
2022-12-31T02:11:30.218Z,84.80
2022-12-31T02:14:04.124Z,84.91
2022-12-31T02:16:53.805Z,85.15
2022-12-31T02:19:53.879Z,85.00
2022-12-31T02:23:06.796Z,85.09
2022-12-31T02:25:44.157Z,85.13
2022-12-31T02:28:30.140Z,85.15
2022-12-31T02:31:20.632Z,85.17
2022-12-31T02:33:56.974Z,85.38
2022-12-31T02:36:30.036Z,85.39
2022-12-31T02:38:59.212Z,85.38
2022-12-31T02:41:45.931Z,85.42
2022-12-31T02:44:29.163Z,85.59
2022-12-31T02:47:08.207Z,85.65
2022-12-31T02:50:13.717Z,85.79
2022-12-31T02:52:53.872Z,86.05
2022-12-31T02:55:38.786Z,86.12
2022-12-31T02:59:03.335Z,86.28
2022-12-31T03:01:59.976Z,86.30
2022-12-31T03:04:32.204Z,86.31
2022-12-31T03:07:02.164Z,86.50
2022-12-31T03:09:30.437Z,86.69
2022-12-31T03:12:18.318Z,86.67
2022-12-31T03:14:46.772Z,86.94
2022-12-31T03:17:15.144Z,86.93
2022-12-31T03:20:01.983Z,86.78
2022-12-31T03:22:30.952Z,86.71
2022-12-31T03:25:21.777Z,86.67
2022-12-31T03:27:52.339Z,86.66
2022-12-31T03:30:21.720Z,86.64
2022-12-31T03:32:50.512Z,86.67
2022-12-31T03:35:20.654Z,86.77
2022-12-31T03:37:50.082Z,86.78
2022-12-31T03:40:20.369Z,86.82
2022-12-31T03:42:48.688Z,86.63
2022-12-31T03:45:16.898Z,86.77
2022-12-31T03:47:45.170Z,86.61
2022-12-31T03:50:15.676Z,86.49
2022-12-31T03:52:44.493Z,86.48
2022-12-31T03:55:13.106Z,86.64
2022-12-31T03:57:41.592Z,86.44
2022-12-31T04:00:13.773Z,86.42
2022-12-31T04:02:42.114Z,86.34
2022-12-31T04:05:13.382Z,86.26
2022-12-31T04:07:41.974Z,86.17
2022-12-31T04:10:12.850Z,86.09
2022-12-31T04:12:41.133Z,85.93
2022-12-31T04:15:12.278Z,85.76
2022-12-31T04:17:40.584Z,85.88
2022-12-31T04:20:09.308Z,85.81
2022-12-31T04:22:37.381Z,85.99
2022-12-31T04:25:11.292Z,86.08
2022-12-31T04:27:40.903Z,86.11
2022-12-31T04:30:11.226Z,85.99
2022-12-31T04:32:39.369Z,86.27
2022-12-31T04:35:08.229Z,86.29
2022-12-31T04:37:36.566Z,86.34
2022-12-31T04:40:06.833Z,86.31
2022-12-31T04:42:36.252Z,86.50
2022-12-31T04:45:04.970Z,86.39
2022-12-31T04:47:33.159Z,86.42
2022-12-31T04:50:01.220Z,86.45
2022-12-31T04:52:29.407Z,86.34
2022-12-31T04:54:57.486Z,86.21
2022-12-31T04:57:25.627Z,86.15
2022-12-31T04:59:53.836Z,86.08
2022-12-31T05:02:21.993Z,86.13
2022-12-31T05:04:50.464Z,86.04
2022-12-31T05:07:19.177Z,85.91
2022-12-31T05:09:47.300Z,85.95
2022-12-31T05:12:15.402Z,86.03
2022-12-31T05:14:43.654Z,85.73
2022-12-31T05:17:11.748Z,85.77
2022-12-31T05:19:40.041Z,85.83
2022-12-31T05:22:26.762Z,85.77
2022-12-31T05:24:55.055Z,85.88
2022-12-31T05:27:23.296Z,85.80
2022-12-31T05:29:51.378Z,85.89
2022-12-31T05:32:19.410Z,85.80
2022-12-31T05:34:47.487Z,85.84
2022-12-31T05:37:15.483Z,85.79
2022-12-31T05:39:43.606Z,85.67
2022-12-31T05:42:11.733Z,85.84
2022-12-31T05:44:39.750Z,85.81
2022-12-31T05:47:07.813Z,85.80
2022-12-31T05:49:36.147Z,85.83
2022-12-31T05:52:04.313Z,85.81
2022-12-31T05:54:32.958Z,85.91
2022-12-31T05:57:01.163Z,85.89
2022-12-31T05:59:29.211Z,85.78
2022-12-31T06:01:57.777Z,85.69
2022-12-31T06:04:26.274Z,85.82
2022-12-31T06:06:54.291Z,85.91
2022-12-31T06:09:22.528Z,85.80
2022-12-31T06:11:50.905Z,85.65
2022-12-31T06:14:18.949Z,85.77
2022-12-31T06:16:46.968Z,85.76
2022-12-31T06:19:15.113Z,85.72
2022-12-31T06:21:43.112Z,85.88
2022-12-31T06:24:11.193Z,85.82
2022-12-31T06:26:39.372Z,85.73
2022-12-31T06:29:07.445Z,85.66
2022-12-31T06:31:35.923Z,85.71
2022-12-31T06:34:04.485Z,85.61
2022-12-31T06:36:32.555Z,85.64
2022-12-31T06:39:01.580Z,85.53
2022-12-31T06:41:29.697Z,85.44
2022-12-31T06:43:57.802Z,85.57
2022-12-31T06:46:27.346Z,85.50
2022-12-31T06:48:55.545Z,85.45
2022-12-31T06:51:24.389Z,85.45
2022-12-31T06:53:52.696Z,85.64
2022-12-31T06:56:31.213Z,85.74
2022-12-31T06:59:03.107Z,85.66
2022-12-31T07:01:43.465Z,85.53
2022-12-31T07:04:42.699Z,85.50
2022-12-31T07:07:47.860Z,85.41
2022-12-31T07:10:45.747Z,85.52
2022-12-31T07:13:25.746Z,85.40
2022-12-31T07:16:07.529Z,85.51
2022-12-31T07:18:41.678Z,85.49
2022-12-31T07:21:16.482Z,85.65
2022-12-31T07:23:44.888Z,85.85
2022-12-31T07:26:28.469Z,85.93
2022-12-31T07:29:21.373Z,85.77
2022-12-31T07:31:52.559Z,85.97
2022-12-31T07:34:37.799Z,86.02
2022-12-31T07:37:33.689Z,85.93
2022-12-31T07:40:25.554Z,86.00
2022-12-31T07:43:07.341Z,86.03
2022-12-31T07:46:19.696Z,85.94
2022-12-31T07:48:48.321Z,85.99
2022-12-31T07:51:17.420Z,86.18
2022-12-31T07:53:45.503Z,86.20
2022-12-31T07:56:13.948Z,86.16
2022-12-31T07:59:23.906Z,86.14
2022-12-31T08:02:13.842Z,86.12
2022-12-31T08:05:12.568Z,85.97
2022-12-31T08:08:05.404Z,85.96
2022-12-31T08:11:00.942Z,85.90
2022-12-31T08:13:30.082Z,85.95
2022-12-31T08:15:59.500Z,85.79
2022-12-31T08:18:27.777Z,85.84
2022-12-31T08:21:12.172Z,85.53
2022-12-31T08:24:06.684Z,85.48
2022-12-31T08:26:49.460Z,85.58
2022-12-31T08:29:34.029Z,85.45
2022-12-31T08:32:17.597Z,85.45
2022-12-31T08:35:03.481Z,85.39
2022-12-31T08:37:42.996Z,85.49
2022-12-31T08:40:17.110Z,85.40
2022-12-31T08:43:09.299Z,85.57
2022-12-31T08:45:46.712Z,85.52
2022-12-31T08:48:36.620Z,85.42
2022-12-31T08:51:05.244Z,85.29
2022-12-31T08:53:35.120Z,85.25
2022-12-31T08:56:13.756Z,85.15
2022-12-31T08:58:57.075Z,84.93
2022-12-31T09:01:28.228Z,84.87
2022-12-31T09:04:15.013Z,84.77
2022-12-31T09:06:52.909Z,84.52
2022-12-31T09:09:30.206Z,84.60
2022-12-31T09:12:23.071Z,84.57
2022-12-31T09:15:12.905Z,84.54
2022-12-31T09:17:47.859Z,84.03
2022-12-31T09:20:25.351Z,83.89
2022-12-31T09:22:55.789Z,83.88
2022-12-31T09:25:25.373Z,83.89
2022-12-31T09:28:14.307Z,83.92
2022-12-31T09:31:08.398Z,84.12
2022-12-31T09:33:46.732Z,83.79
2022-12-31T09:36:32.718Z,83.70
2022-12-31T09:39:11.838Z,83.44
2022-12-31T09:41:59.650Z,83.45
2022-12-31T09:44:47.893Z,83.18
2022-12-31T09:47:22.176Z,83.24
2022-12-31T09:50:18.234Z,83.03
2022-12-31T09:53:06.263Z,83.05
2022-12-31T09:56:12.463Z,83.14
2022-12-31T09:58:56.847Z,83.13
2022-12-31T10:01:38.322Z,83.14
2022-12-31T10:04:25.904Z,82.86
2022-12-31T10:07:20.759Z,82.61
2022-12-31T10:10:00.228Z,82.81
2022-12-31T10:12:52.535Z,82.72
2022-12-31T10:15:42.355Z,82.62
2022-12-31T10:18:28.921Z,82.56
2022-12-31T10:21:38.367Z,82.53
2022-12-31T10:24:41.787Z,82.73
2022-12-31T10:27:25.092Z,82.72
2022-12-31T10:30:03.597Z,82.56
2022-12-31T10:32:58.925Z,82.47
2022-12-31T10:35:40.514Z,82.65
2022-12-31T10:38:23.948Z,82.54
2022-12-31T10:41:28.595Z,82.11
2022-12-31T10:44:09.637Z,82.28
2022-12-31T10:46:43.752Z,81.96
2022-12-31T10:49:33.606Z,81.90
2022-12-31T10:52:13.701Z,82.03
2022-12-31T10:54:51.057Z,82.11
2022-12-31T10:57:44.070Z,82.23
2022-12-31T11:00:19.815Z,82.37
2022-12-31T11:03:42.258Z,82.59
2022-12-31T11:06:40.575Z,82.75
2022-12-31T11:09:32.756Z,83.02
2022-12-31T11:12:15.231Z,83.21
2022-12-31T11:15:02.038Z,83.28
2022-12-31T11:17:51.739Z,83.46
2022-12-31T11:20:28.753Z,83.67
2022-12-31T11:23:19.582Z,83.58
2022-12-31T11:26:10.591Z,83.82
2022-12-31T11:29:04.838Z,83.55
2022-12-31T11:31:47.030Z,83.80
2022-12-31T11:34:33.591Z,83.81
2022-12-31T11:37:22.267Z,83.85
2022-12-31T11:40:00.362Z,83.83
2022-12-31T11:42:55.070Z,83.92
2022-12-31T11:45:38.570Z,83.52
2022-12-31T11:51:09.642Z,83.45
2022-12-31T11:54:06.970Z,83.38
2022-12-31T11:56:40.349Z,83.23
2022-12-31T11:59:18.608Z,83.29
2022-12-31T12:02:00.655Z,83.05
2022-12-31T12:04:28.792Z,82.99
2022-12-31T12:06:57.853Z,83.15
2022-12-31T12:09:32.255Z,83.25
2022-12-31T12:12:04.607Z,83.07
2022-12-31T12:14:32.713Z,83.18
2022-12-31T12:17:05.074Z,83.06
2022-12-31T12:19:37.047Z,82.98
2022-12-31T12:22:22.204Z,82.96
2022-12-31T12:25:08.412Z,82.92
2022-12-31T12:27:36.687Z,82.95
2022-12-31T12:30:26.091Z,82.84
2022-12-31T12:33:04.781Z,82.87
2022-12-31T12:35:35.484Z,83.01
2022-12-31T12:38:08.525Z,82.93
2022-12-31T12:40:37.079Z,82.66
2022-12-31T12:43:06.926Z,82.53
2022-12-31T12:45:51.873Z,82.25
2022-12-31T12:48:42.004Z,82.28
2022-12-31T12:51:45.705Z,82.37
2022-12-31T12:54:25.995Z,82.46
2022-12-31T12:57:17.503Z,82.38
2022-12-31T13:00:03.239Z,82.49
2022-12-31T13:02:56.290Z,82.42
2022-12-31T13:05:28.430Z,82.45
2022-12-31T13:08:27.909Z,82.25
2022-12-31T13:11:03.565Z,82.43
2022-12-31T13:13:50.535Z,82.27
2022-12-31T13:16:28.306Z,82.25
2022-12-31T13:19:06.091Z,82.34
2022-12-31T13:21:43.381Z,82.48
2022-12-31T13:24:17.196Z,82.43
2022-12-31T13:26:54.675Z,82.54
2022-12-31T13:29:27.397Z,82.49
2022-12-31T13:31:57.985Z,82.21
2022-12-31T13:34:31.539Z,82.09
2022-12-31T13:37:05.740Z,82.08
2022-12-31T13:39:40.907Z,82.00
2022-12-31T13:42:22.334Z,82.02
2022-12-31T13:45:01.123Z,82.03
2022-12-31T13:47:40.797Z,82.17
2022-12-31T13:50:29.703Z,81.89
2022-12-31T13:53:20.401Z,81.95
2022-12-31T13:56:15.636Z,81.77
2022-12-31T13:58:50.187Z,81.72
2022-12-31T14:01:34.591Z,81.50
2022-12-31T14:04:43.463Z,81.66
2022-12-31T14:07:18.381Z,81.49
2022-12-31T14:09:46.756Z,81.42
2022-12-31T14:12:47.347Z,81.11
2022-12-31T14:15:31.515Z,81.29
2022-12-31T14:18:21.891Z,81.19
2022-12-31T14:21:09.417Z,81.30
2022-12-31T14:23:53.282Z,81.38
2022-12-31T14:26:27.665Z,81.36
2022-12-31T14:29:11.026Z,81.28
2022-12-31T14:31:45.164Z,81.22
2022-12-31T14:34:30.081Z,81.45
2022-12-31T14:37:09.346Z,81.25
2022-12-31T14:39:57.713Z,81.31
2022-12-31T14:42:51.627Z,81.33
2022-12-31T14:46:01.351Z,81.16
2022-12-31T14:48:55.505Z,81.29
2022-12-31T14:51:28.675Z,81.23
2022-12-31T14:53:58.558Z,81.38
2022-12-31T14:56:47.470Z,81.33
2022-12-31T14:59:34.494Z,81.46
2022-12-31T15:02:25.336Z,81.39
2022-12-31T15:05:24.861Z,81.60
2022-12-31T15:08:01.735Z,81.59
2022-12-31T15:11:01.849Z,81.86
2022-12-31T15:13:54.003Z,81.68
2022-12-31T15:16:40.788Z,81.72
2022-12-31T15:19:46.464Z,81.82
2022-12-31T15:22:38.344Z,81.90
2022-12-31T15:25:27.455Z,81.91
2022-12-31T15:28:00.909Z,81.95
2022-12-31T15:30:28.982Z,82.05
2022-12-31T15:33:01.953Z,81.95
2022-12-31T15:35:33.039Z,82.06
2022-12-31T15:38:28.978Z,81.93
2022-12-31T15:40:58.074Z,82.00
2022-12-31T15:43:40.278Z,82.31
2022-12-31T15:46:23.443Z,82.06
2022-12-31T15:49:15.438Z,82.04
2022-12-31T15:51:50.041Z,82.05
2022-12-31T15:54:35.000Z,81.91
2022-12-31T15:57:09.215Z,81.91
2022-12-31T15:59:40.417Z,82.05
2022-12-31T16:02:43.109Z,82.18
2022-12-31T16:05:26.522Z,81.87
2022-12-31T16:07:57.872Z,82.23
2022-12-31T16:10:30.239Z,82.05
2022-12-31T16:12:59.881Z,82.17
2022-12-31T16:15:34.098Z,82.22
2022-12-31T16:18:05.978Z,82.33
2022-12-31T16:20:40.493Z,82.37
2022-12-31T16:23:27.511Z,82.50
2022-12-31T16:26:00.085Z,82.30
2022-12-31T16:28:31.331Z,82.45
2022-12-31T16:31:03.996Z,82.60
2022-12-31T16:33:32.904Z,82.50
2022-12-31T16:36:01.930Z,82.42
2022-12-31T16:38:35.448Z,82.40
2022-12-31T16:41:07.743Z,82.63
2022-12-31T16:43:39.141Z,82.50
2022-12-31T16:46:17.069Z,82.60
2022-12-31T16:48:48.393Z,82.72
2022-12-31T16:51:22.561Z,82.66
2022-12-31T16:53:51.902Z,83.02
2022-12-31T16:56:33.426Z,82.84
2022-12-31T16:59:34.859Z,82.91
2022-12-31T17:02:11.730Z,82.83
2022-12-31T17:04:45.905Z,83.00
2022-12-31T17:07:31.434Z,83.03
2022-12-31T17:10:08.616Z,83.14
2022-12-31T17:13:17.575Z,83.08
2022-12-31T17:15:43.546Z,82.93
2022-12-31T17:18:20.551Z,83.07
2022-12-31T17:20:51.504Z,83.24
2022-12-31T17:23:26.768Z,83.33
2022-12-31T17:26:09.268Z,83.23
2022-12-31T17:28:45.784Z,83.28
2022-12-31T17:31:37.255Z,83.04
2022-12-31T17:34:14.546Z,83.16
2022-12-31T17:37:11.706Z,83.23
2022-12-31T17:39:49.755Z,83.45
2022-12-31T17:42:30.037Z,83.35
2022-12-31T17:45:05.513Z,83.22
2022-12-31T17:47:39.162Z,83.42
2022-12-31T17:50:27.644Z,83.43
2022-12-31T17:52:59.626Z,83.30
2022-12-31T17:55:28.859Z,83.42
2022-12-31T17:57:58.218Z,83.33
2022-12-31T18:00:27.758Z,83.14
2022-12-31T18:02:56.042Z,83.18
2022-12-31T18:05:25.418Z,83.33
2022-12-31T18:07:54.106Z,83.40
2022-12-31T18:10:24.723Z,83.38
2022-12-31T18:12:53.184Z,83.14
2022-12-31T18:15:23.619Z,83.06
2022-12-31T18:17:51.692Z,83.04
2022-12-31T18:20:20.095Z,83.03
2022-12-31T18:22:48.257Z,83.01
2022-12-31T18:25:19.988Z,82.97
2022-12-31T18:27:49.716Z,82.97
2022-12-31T18:30:18.335Z,82.98
2022-12-31T18:32:46.761Z,82.84
2022-12-31T18:36:06.533Z,82.86
2022-12-31T18:38:13.701Z,82.73
2022-12-31T18:40:46.465Z,82.70
2022-12-31T18:43:17.414Z,82.79
2022-12-31T18:45:46.735Z,82.86
2022-12-31T18:48:15.433Z,82.67
2022-12-31T18:50:44.234Z,82.44
2022-12-31T18:53:30.241Z,82.52
2022-12-31T18:55:58.402Z,82.30
2022-12-31T18:58:26.748Z,82.14
2022-12-31T19:00:54.774Z,82.16
2022-12-31T19:03:24.659Z,82.11
2022-12-31T19:05:53.783Z,81.95
2022-12-31T19:08:23.288Z,81.97
2022-12-31T19:10:52.442Z,81.79
2022-12-31T19:13:21.194Z,81.87
2022-12-31T19:15:53.387Z,81.72
2022-12-31T19:18:21.835Z,81.84
2022-12-31T19:20:51.695Z,81.69
2022-12-31T19:23:21.568Z,81.83
2022-12-31T19:25:50.234Z,81.93
2022-12-31T19:28:26.492Z,81.86
2022-12-31T19:30:54.682Z,81.73
2022-12-31T19:33:22.686Z,81.89
2022-12-31T19:35:50.676Z,81.70
2022-12-31T19:38:24.880Z,81.48
2022-12-31T19:40:53.953Z,81.56
2022-12-31T19:43:23.159Z,81.70
2022-12-31T19:45:52.556Z,81.45
2022-12-31T19:48:30.291Z,81.52
2022-12-31T19:51:00.759Z,81.76
2022-12-31T19:53:28.868Z,81.61
2022-12-31T19:55:56.866Z,81.69
2022-12-31T19:58:27.040Z,81.69
2022-12-31T20:01:02.913Z,81.52
2022-12-31T20:03:32.939Z,81.61
2022-12-31T20:06:07.203Z,81.59
2022-12-31T20:08:36.744Z,81.91
2022-12-31T20:11:09.207Z,81.63
2022-12-31T20:13:38.824Z,81.62
2022-12-31T20:16:13.274Z,81.73
2022-12-31T20:18:45.546Z,81.59
2022-12-31T20:21:19.919Z,81.83
2022-12-31T20:23:49.565Z,81.61
2022-12-31T20:26:18.962Z,81.79
2022-12-31T20:28:47.456Z,81.74
2022-12-31T20:31:18.201Z,81.72
2022-12-31T20:33:46.345Z,81.80
2022-12-31T20:36:16.576Z,81.53
2022-12-31T20:38:45.734Z,81.56
2022-12-31T20:41:16.714Z,81.41
2022-12-31T20:43:45.528Z,81.51
2022-12-31T20:46:18.114Z,81.53
2022-12-31T20:48:47.680Z,81.27
2022-12-31T20:51:17.074Z,81.31
2022-12-31T20:53:49.509Z,81.40
2022-12-31T20:56:18.737Z,81.28
2022-12-31T20:58:47.116Z,81.25
2022-12-31T21:01:16.477Z,81.21
2022-12-31T21:06:35.734Z,81.24
2022-12-31T21:09:06.755Z,80.93
2022-12-31T21:11:53.880Z,80.98
2022-12-31T21:14:22.260Z,81.17
2022-12-31T21:16:50.532Z,80.94
2022-12-31T21:19:18.581Z,80.72
2022-12-31T21:21:48.304Z,80.86
2022-12-31T21:24:23.261Z,81.03
2022-12-31T21:26:56.592Z,80.97
2022-12-31T21:29:25.308Z,80.96
2022-12-31T21:31:56.211Z,80.92
2022-12-31T21:34:24.283Z,80.89
2022-12-31T21:36:52.354Z,80.85
2022-12-31T21:39:21.185Z,80.96
2022-12-31T21:41:51.865Z,80.68
2022-12-31T21:44:21.540Z,80.72
2022-12-31T21:47:35.318Z,80.87
2022-12-31T21:50:04.777Z,81.04
2022-12-31T21:52:35.137Z,80.77
2022-12-31T21:55:24.745Z,80.45
2022-12-31T21:58:24.837Z,80.45
2022-12-31T22:00:59.877Z,80.43
2022-12-31T22:03:28.720Z,80.55
2022-12-31T22:06:16.289Z,80.58
2022-12-31T22:08:45.745Z,80.33
2022-12-31T22:11:15.723Z,80.66
2022-12-31T22:13:44.395Z,80.48
2022-12-31T22:16:14.148Z,80.51
2022-12-31T22:18:44.104Z,80.57
2022-12-31T22:21:18.811Z,80.59
2022-12-31T22:23:50.877Z,80.28
2022-12-31T22:26:22.300Z,80.53
2022-12-31T22:28:51.124Z,80.38
2022-12-31T22:31:21.760Z,80.51
2022-12-31T22:33:50.437Z,80.26
2022-12-31T22:36:21.382Z,80.35
2022-12-31T22:38:51.068Z,80.30
2022-12-31T22:41:21.159Z,80.31
2022-12-31T22:43:51.499Z,80.06
2022-12-31T22:46:28.225Z,80.28
2022-12-31T22:49:00.836Z,80.27
2022-12-31T22:51:56.617Z,80.25
2022-12-31T22:54:19.450Z,80.06
2022-12-31T22:56:47.630Z,79.99
2022-12-31T22:59:15.611Z,79.89
2022-12-31T23:01:44.053Z,79.93
2022-12-31T23:04:12.273Z,80.00
2022-12-31T23:06:47.346Z,80.02
2022-12-31T23:09:36.489Z,80.04
2022-12-31T23:12:06.458Z,80.15
2022-12-31T23:14:53.569Z,80.10
2022-12-31T23:17:45.305Z,80.27
2022-12-31T23:20:36.039Z,80.32
2022-12-31T23:23:11.739Z,80.23
2022-12-31T23:25:46.451Z,80.20
2022-12-31T23:28:23.628Z,80.48
2022-12-31T23:30:52.577Z,80.50
2022-12-31T23:33:23.429Z,80.50
2022-12-31T23:35:51.457Z,80.59
2022-12-31T23:38:19.801Z,80.35
2022-12-31T23:40:47.859Z,80.23
2022-12-31T23:43:21.173Z,80.28
2022-12-31T23:45:53.207Z,80.46
2022-12-31T23:48:21.340Z,80.43
2022-12-31T23:50:53.556Z,80.40
2022-12-31T23:53:25.513Z,80.20
2022-12-31T23:55:54.106Z,80.28
2022-12-31T23:58:22.394Z,80.33
